createdAt,value
2023-07-25T00:03:00.852Z,51.78
2023-07-25T00:08:22.858Z,51.79
2023-07-25T00:13:47.853Z,51.96
2023-07-25T00:19:09.791Z,51.51
2023-07-25T00:24:31.656Z,51.91
2023-07-25T00:29:54.140Z,51.74
2023-07-25T00:35:16.075Z,51.59
2023-07-25T00:40:41.099Z,51.58
2023-07-25T00:46:03.195Z,52.00
2023-07-25T00:51:25.090Z,52.03
2023-07-25T00:56:47.022Z,51.76
2023-07-25T01:02:10.174Z,51.75
2023-07-25T01:07:33.046Z,51.85
2023-07-25T01:12:55.085Z,51.77
2023-07-25T01:18:17.461Z,52.17
2023-07-25T01:23:40.110Z,52.02
2023-07-25T01:29:01.977Z,52.00
2023-07-25T01:34:24.078Z,52.31
2023-07-25T01:39:45.967Z,52.15
2023-07-25T01:45:08.715Z,52.48
2023-07-25T01:50:32.455Z,52.03
2023-07-25T01:55:54.775Z,52.17
2023-07-25T02:01:16.749Z,52.00
2023-07-25T02:06:38.776Z,51.95
2023-07-25T02:12:02.265Z,52.46
2023-07-25T02:17:24.134Z,52.32
2023-07-25T02:22:45.997Z,52.51
2023-07-25T02:28:07.840Z,52.36
2023-07-25T02:33:29.799Z,52.37
2023-07-25T02:38:51.965Z,52.16
2023-07-25T02:44:13.842Z,52.48
2023-07-25T02:49:35.682Z,52.05
2023-07-25T02:54:57.554Z,52.04
2023-07-25T03:00:19.848Z,52.25
2023-07-25T03:05:41.821Z,52.17
2023-07-25T03:11:03.758Z,52.00
2023-07-25T03:16:25.766Z,52.26
2023-07-25T03:21:47.835Z,52.33
2023-07-25T03:27:09.789Z,52.58
2023-07-25T03:32:31.758Z,52.38
2023-07-25T03:37:53.680Z,52.58
2023-07-25T03:43:15.533Z,52.38
2023-07-25T03:48:37.667Z,52.29
2023-07-25T03:53:59.600Z,52.42
2023-07-25T03:59:22.092Z,52.18
2023-07-25T04:04:44.121Z,52.37
2023-07-25T04:10:06.679Z,52.57
2023-07-25T04:15:28.592Z,52.22
2023-07-25T04:20:50.512Z,52.14
2023-07-25T04:26:12.420Z,52.42
2023-07-25T04:31:34.712Z,52.07
2023-07-25T04:36:56.955Z,52.33
2023-07-25T04:42:18.857Z,52.34
2023-07-25T04:47:40.884Z,52.18
2023-07-25T04:53:02.769Z,52.59
2023-07-25T04:58:24.595Z,52.58
2023-07-25T05:03:46.482Z,52.16
2023-07-25T05:09:08.575Z,52.33
2023-07-25T05:14:30.438Z,52.43
2023-07-25T05:19:52.330Z,52.25
2023-07-25T05:25:14.172Z,52.60
2023-07-25T05:30:36.022Z,52.74
2023-07-25T05:36:05.076Z,52.48
2023-07-25T05:41:27.049Z,52.37
2023-07-25T05:46:48.940Z,52.16
2023-07-25T05:52:10.900Z,52.23
2023-07-25T05:57:32.787Z,52.44
2023-07-25T06:02:54.673Z,52.20
2023-07-25T06:08:16.527Z,51.98
2023-07-25T06:13:41.524Z,51.76
2023-07-25T06:19:03.584Z,51.80
2023-07-25T06:24:25.591Z,51.81
2023-07-25T06:29:48.088Z,51.52
2023-07-25T06:35:10.239Z,51.37
2023-07-25T06:40:32.272Z,51.60
2023-07-25T06:45:54.725Z,51.38
2023-07-25T06:51:16.640Z,51.84
2023-07-25T06:56:38.562Z,50.97
2023-07-25T07:02:00.450Z,50.97
2023-07-25T07:07:22.446Z,51.02
2023-07-25T07:12:49.351Z,50.95
2023-07-25T07:18:11.700Z,50.56
2023-07-25T07:23:34.539Z,50.77
2023-07-25T07:28:56.372Z,50.73
2023-07-25T07:34:19.257Z,50.77
2023-07-25T07:39:42.738Z,50.81
2023-07-25T07:45:04.961Z,50.08
2023-07-25T07:50:29.987Z,50.41
2023-07-25T07:55:51.868Z,50.11
2023-07-25T08:01:23.232Z,49.95
2023-07-25T08:06:45.247Z,49.58
2023-07-25T08:12:07.846Z,49.62
2023-07-25T08:17:29.878Z,49.74
2023-07-25T08:22:51.851Z,49.66
2023-07-25T08:28:13.892Z,49.44
2023-07-25T08:33:38.397Z,49.78
2023-07-25T08:39:00.289Z,49.66
2023-07-25T08:44:22.837Z,49.63
2023-07-25T08:49:47.984Z,49.51
2023-07-25T08:55:10.135Z,49.49
2023-07-25T09:00:32.437Z,49.64
2023-07-25T09:05:54.832Z,49.93
2023-07-25T09:11:20.924Z,50.05
2023-07-25T09:16:43.016Z,49.89
2023-07-25T09:22:05.303Z,49.84
2023-07-25T09:27:27.941Z,50.01
2023-07-25T09:32:51.826Z,49.79
2023-07-25T09:38:13.805Z,49.73
2023-07-25T09:43:35.750Z,50.07
2023-07-25T09:48:57.742Z,50.14
2023-07-25T09:54:19.656Z,50.05
2023-07-25T09:59:41.797Z,50.05
2023-07-25T10:05:03.943Z,50.14
2023-07-25T10:10:27.119Z,49.78
2023-07-25T10:15:50.829Z,49.89
2023-07-25T10:21:13.372Z,49.81
2023-07-25T10:26:35.317Z,49.65
2023-07-25T10:31:57.571Z,49.39
2023-07-25T10:37:29.762Z,49.06
2023-07-25T10:48:45.029Z,48.91
2023-07-25T10:54:10.505Z,49.17
2023-07-25T10:59:32.346Z,48.84
2023-07-25T11:05:14.153Z,48.88
2023-07-25T11:10:36.484Z,49.05
2023-07-25T11:15:58.632Z,48.99
2023-07-25T11:21:20.555Z,49.21
2023-07-25T11:26:44.711Z,48.93
2023-07-25T11:32:07.186Z,48.83
2023-07-25T11:37:29.134Z,49.15
2023-07-25T11:42:51.682Z,48.99
2023-07-25T11:48:16.495Z,48.88
2023-07-25T11:53:38.738Z,48.68
2023-07-25T11:59:01.277Z,49.13
2023-07-25T12:04:23.243Z,48.70
2023-07-25T12:09:54.903Z,48.69
2023-07-25T12:15:17.383Z,48.45
2023-07-25T12:20:48.755Z,48.37
2023-07-25T12:26:22.125Z,47.97
2023-07-25T12:31:44.728Z,47.69
2023-07-25T12:37:07.562Z,47.53
2023-07-25T12:42:29.406Z,47.37
2023-07-25T12:47:51.252Z,47.22
2023-07-25T12:53:13.227Z,47.27
2023-07-25T12:58:35.057Z,46.96
2023-07-25T13:03:57.076Z,46.93
2023-07-25T13:09:19.205Z,46.54
2023-07-25T13:14:41.285Z,46.50
2023-07-25T13:20:06.116Z,46.21
2023-07-25T13:25:28.562Z,46.01
2023-07-25T13:30:50.403Z,45.96
2023-07-25T13:36:12.354Z,45.80
2023-07-25T13:41:34.617Z,45.67
2023-07-25T13:46:56.866Z,45.65
2023-07-25T13:52:18.920Z,45.50
2023-07-25T13:57:40.751Z,45.10
2023-07-25T14:03:02.692Z,45.09
2023-07-25T14:08:24.655Z,44.59
2023-07-25T14:13:46.594Z,45.08
2023-07-25T14:19:08.832Z,44.93
2023-07-25T14:24:31.326Z,44.70
2023-07-25T14:29:53.248Z,44.52
2023-07-25T14:35:15.174Z,44.43
2023-07-25T14:40:37.251Z,44.62
2023-07-25T14:45:59.274Z,44.61
2023-07-25T14:51:21.216Z,44.07
2023-07-25T14:56:43.073Z,44.04
2023-07-25T15:02:05.556Z,44.05
2023-07-25T15:07:27.601Z,44.12
2023-07-25T15:12:49.542Z,44.33
2023-07-25T15:18:12.122Z,44.24
2023-07-25T15:23:34.217Z,44.02
2023-07-25T15:28:56.406Z,44.03
2023-07-25T15:34:18.756Z,44.36
2023-07-25T15:39:40.744Z,44.22
2023-07-25T15:45:17.709Z,43.88
2023-07-25T15:50:40.381Z,44.02
2023-07-25T15:56:02.348Z,43.96
2023-07-25T16:01:24.261Z,43.54
2023-07-25T16:06:46.111Z,43.91
2023-07-25T16:12:09.295Z,43.66
2023-07-25T16:17:31.204Z,43.43
2023-07-25T16:22:53.259Z,43.32
2023-07-25T16:28:15.110Z,43.28
2023-07-25T16:33:36.978Z,43.26
2023-07-25T16:38:59.042Z,43.46
2023-07-25T16:44:20.968Z,43.29
2023-07-25T16:49:42.796Z,43.38
2023-07-25T16:55:05.366Z,43.08
2023-07-25T17:00:27.271Z,42.74
2023-07-25T17:05:49.374Z,42.55
2023-07-25T17:11:12.825Z,42.21
2023-07-25T17:16:34.786Z,41.92
2023-07-25T17:21:56.674Z,42.26
2023-07-25T17:27:19.207Z,41.98
2023-07-25T17:32:41.232Z,41.69
2023-07-25T17:38:03.430Z,41.70
2023-07-25T17:43:25.566Z,41.72
2023-07-25T17:48:47.646Z,41.91
2023-07-25T17:54:09.541Z,41.66
2023-07-25T17:59:31.389Z,41.65
2023-07-25T18:04:53.352Z,41.87
2023-07-25T18:10:15.352Z,42.24
2023-07-25T18:15:37.268Z,41.68
2023-07-25T18:20:59.126Z,41.94
2023-07-25T18:26:21.428Z,41.80
2023-07-25T18:31:43.351Z,42.20
2023-07-25T18:37:06.244Z,42.41
2023-07-25T18:42:28.353Z,42.54
2023-07-25T18:47:50.560Z,42.47
2023-07-25T18:53:12.818Z,42.52
2023-07-25T18:58:35.168Z,42.94
2023-07-25T19:03:57.766Z,43.16
2023-07-25T19:09:21.578Z,43.03
2023-07-25T19:14:43.730Z,43.50
2023-07-25T19:20:06.984Z,43.38
2023-07-25T19:25:28.848Z,43.72
2023-07-25T19:30:50.822Z,43.99
2023-07-25T19:36:12.746Z,44.07
2023-07-25T19:41:37.717Z,43.98
2023-07-25T19:46:59.612Z,44.18
2023-07-25T19:52:21.448Z,44.95
2023-07-25T19:57:43.314Z,45.33
2023-07-25T20:03:05.493Z,44.77
2023-07-25T20:08:27.521Z,45.11
2023-07-25T20:13:49.348Z,45.09
2023-07-25T20:19:11.189Z,45.31
2023-07-25T20:24:33.085Z,44.93
2023-07-25T20:29:55.081Z,45.30
2023-07-25T20:35:16.991Z,45.31
2023-07-25T20:40:39.302Z,45.44
2023-07-25T20:46:04.671Z,45.75
2023-07-25T20:51:26.885Z,45.53
2023-07-25T20:56:48.867Z,45.82
2023-07-25T21:02:11.132Z,45.71
2023-07-25T21:07:33.320Z,45.80
2023-07-25T21:12:55.188Z,45.63
2023-07-25T21:18:17.107Z,46.23
2023-07-25T21:23:39.003Z,46.01
2023-07-25T21:29:00.944Z,46.03
2023-07-25T21:34:22.793Z,46.21
2023-07-25T21:39:44.778Z,46.37
2023-07-25T21:45:08.095Z,46.28
2023-07-25T21:50:29.961Z,46.04
2023-07-25T21:55:52.472Z,46.43
2023-07-25T22:01:14.705Z,46.45
2023-07-25T22:06:36.720Z,46.68
2023-07-25T22:11:58.648Z,46.66
2023-07-25T22:17:21.229Z,46.25
2023-07-25T22:22:43.157Z,46.48
2023-07-25T22:28:05.327Z,46.83
2023-07-25T22:33:27.281Z,46.40
2023-07-25T22:38:49.142Z,46.90
2023-07-25T22:44:11.067Z,46.96
2023-07-25T22:49:33.342Z,46.85
2023-07-25T22:54:55.232Z,46.65
2023-07-25T23:00:17.508Z,46.48
2023-07-25T23:05:39.471Z,46.74
2023-07-25T23:11:01.501Z,47.00
2023-07-25T23:16:23.695Z,46.66
2023-07-25T23:21:45.823Z,46.57
2023-07-25T23:27:08.020Z,47.07
2023-07-25T23:32:31.421Z,46.85
2023-07-25T23:37:53.771Z,46.85
2023-07-25T23:43:17.214Z,46.94
2023-07-25T23:48:39.086Z,47.00
2023-07-25T23:54:01.309Z,47.17
2023-07-25T23:59:23.301Z,46.72
